West Chicago, IL

10:03 CST le 05 Mars 2015 (GMT -0600)
Du Page | Change Station
CLOSE
Current Station
Aéroport
Location: Chicago DuPage,
Altitude: 758 ft
Stations météo à proximité

Alt. 758 ft 41.90 °N, 88.25 °W | Updated 11 minutes ago

Ciel dégagé
Ciel dégagé
12 ° F
Paraît 0 ° F
N
9
Vent Variable Vent de Nord

Aujourd'hui
Haut(e) -- | Bas -- ° F
--% Risque de précip.
Hier
Haut(e) -- | Bas -- ° F
Precip. -- pouce
6:21 AM 5:47 PM
Pleine lune, 100% visible
Pression 30.51 pouce
Visibilité 10.0 Miles terrestres
Nuages Ciel dégagé
Refroidissement éolien 0 ° F
Point de rosée -7 ° F
Humidité 42%
Précipitations 0.00 pouce
Profondeur de la couche neigeuse Non disponible.
UV 4 sur 12
Pollen .20 sur 12
Qualité de l'air Non disponible.
Flu Activity Non disponible.
METAR KDPA 051552Z 35008KT 10SM CLR M11/M22 A3046 RMK AO2 SLP330 T11111217

More Conditions Fewer Conditions

Pression 30.51 pouce
Visibilité 10.0 Miles terrestres
Nuages Ciel dégagé
Refroidissement éolien 0 ° F
Point de rosée -7 ° F
Humidité 42%
Précipitations 0.00 pouce
Profondeur de la couche neigeuse Non disponible.
UV 4 sur 12
Pollen .20 sur 12
Qualité de l'air Non disponible.
Flu Activity Non disponible.
METAR KDPA 051552Z 35008KT 10SM CLR M11/M22 A3046 RMK AO2 SLP330 T11111217

More Conditions Fewer Conditions

10-Day Weather Forecast

Almanac

Astronomie

Mar. 05, 2015 Lever Coucher
Temps réel
Crépuscule civil
Crépuscule nautique
Crépuscule astronomique
Lune
Durée de lumière visible
Longueur du jour
Tomorrow will be .
, % of the Moon is Illuminated

Extrêmes aujourd'hui

State Highs State Lows

Community

WunderPhotos

Upload Photos

1,802,833 Photos téléchargées !

WunderBlogs® & News

Nearby

Qualité de l'air

  Qualité de l'air Indice de la qualité de l'air Polluant
Not available.

Épaisseur de neige

Station Depth Altitude

Activité sismique

Ville Distance Mag. Time & Date
Minimum magnitude displayed is 2.5.

Températures des eaux côtières

Lieu Température

Stations météo à proximité